»·PEaware :: N7584N KJFK-KEWR

N7584N :: KJFK-KEWR

FLIGHT INFORMATION

Flight Status: Arrived
Operator: Privately registered:
United States
More flights under this callsign
Pilot: Andrew F. (4171)
Aircraft: SOCATA TBM-900
(TBM9)
More flights by this aircraft type
Origin: KJFK Kennedy Intl
United States
Destination: KEWR Newark Intl
United States
More flights between these airports :: More routes between these airports
Route: JFK5 JFK V16 DIXIE V276 RBV V249 SBJ
File this flight plan on PilotEdge
Remarks:
Altitude:
(Current/Filed)
6,000ft
Speed:
(Current/Filed)
200kts
Departed: 14-Nov-22 05:30 AM
Arrived: 14-Nov-22 06:24 AM
Distance/Time
Traveled:
18nm/0:54
Distance/Time
To Go:
Arrived

Flight Plot

Page will automatically refresh every two minutes.

Flight plan parsing failed; only flown route is shown


Map Options




Map Legend


Flown Route
Filed Route
Departure Airport
Arrival Airport
Navaid (VOR, NDB)
Fix

Horizontal Profiles

Position Reports

Time Latitude Longitude Heading Altitude Ground
Speed
14-Nov-22 05:16 40.648896 -73.809952 339 10ft 0kts
14-Nov-22 05:17 40.648896 -73.809952 339 10ft 0kts
14-Nov-22 05:18 40.648896 -73.809952 339 10ft 0kts
14-Nov-22 05:19 40.648896 -73.809952 339 10ft 0kts
14-Nov-22 05:20 40.648896 -73.809952 339 10ft 0kts
14-Nov-22 05:21 40.648896 -73.809952 339 10ft 0kts
14-Nov-22 05:22 40.648896 -73.809952 339 10ft 0kts
14-Nov-22 05:23 40.648896 -73.809952 339 10ft 0kts
14-Nov-22 05:24 40.649101 -73.810124 314 10ft 0kts
14-Nov-22 05:25 40.649695 -73.811643 257 10ft 8kts
14-Nov-22 05:26 40.649829 -73.813961 298 10ft 4kts
14-Nov-22 05:27 40.649345 -73.815726 211 10ft 11kts
14-Nov-22 05:28 40.649107 -73.815905 210 10ft 2kts
14-Nov-22 05:29 40.645951 -73.811568 119 9ft 94kts
14-Nov-22 05:30 40.626392 -73.768346 119 1494ft 158kts
14-Nov-22 05:31 40.605998 -73.720006 119 3932ft 152kts
14-Nov-22 05:32 40.579229 -73.678504 193 5427ft 163kts
14-Nov-22 05:33 40.541719 -73.719517 226 6075ft 203kts
14-Nov-22 05:34 40.498602 -73.774323 226 6059ft 222kts
14-Nov-22 05:35 40.453987 -73.831245 227 6057ft 224kts
14-Nov-22 05:36 40.409497 -73.888612 227 6061ft 224kts
14-Nov-22 05:37 40.365239 -73.946661 227 6068ft 225kts
14-Nov-22 05:38 40.318644 -74.002380 217 5981ft 228kts
14-Nov-22 05:39 40.268044 -74.052506 242 5942ft 226kts
14-Nov-22 05:40 40.254114 -74.132085 257 5981ft 225kts
14-Nov-22 05:41 40.245923 -74.212575 291 5937ft 230kts
14-Nov-22 05:42 40.297210 -74.272106 317 4785ft 252kts
14-Nov-22 05:43 40.350625 -74.330904 317 3577ft 248kts
14-Nov-22 05:44 40.400155 -74.386948 317 2976ft 206kts
14-Nov-22 05:45 40.440866 -74.433075 317 2990ft 189kts
14-Nov-22 05:46 40.480952 -74.478569 327 2981ft 191kts
14-Nov-22 05:47 40.517497 -74.427947 66 3001ft 236kts
14-Nov-22 05:48 40.532286 -74.342752 88 3001ft 246kts
14-Nov-22 05:49 40.561731 -74.261196 54 2124ft 258kts
14-Nov-22 05:50 40.614220 -74.213552 18 1452ft 229kts
14-Nov-22 05:51 40.667687 -74.180384 22 347ft 150kts
14-Nov-22 05:52 40.704039 -74.154603 24 1203ft 155kts
14-Nov-22 05:53 40.742781 -74.118609 33 2485ft 195kts
14-Nov-22 05:54 40.789882 -74.070815 16 3234ft 203kts
14-Nov-22 05:55 40.844401 -74.056238 351 3973ft 214kts
14-Nov-22 05:56 40.894223 -74.097293 307 3955ft 210kts
14-Nov-22 05:57 40.877909 -74.166464 247 3973ft 209kts
14-Nov-22 05:58 40.838373 -74.219946 207 3975ft 221kts
14-Nov-22 05:59 40.781403 -74.251792 207 3744ft 229kts
14-Nov-22 06:00 40.722140 -74.285393 207 2971ft 224kts
14-Nov-22 06:01 40.665662 -74.317625 207 2986ft 222kts
14-Nov-22 06:02 40.608733 -74.350459 207 2994ft 226kts
14-Nov-22 06:03 40.550910 -74.356384 125 2986ft 236kts
14-Nov-22 06:04 40.538244 -74.277141 60 2930ft 238kts
14-Nov-22 06:05 40.582109 -74.224615 16 2003ft 186kts
14-Nov-22 06:06 40.626277 -74.201350 11 998ft 165kts
14-Nov-22 06:07 40.668534 -74.179893 22 378ft 159kts
14-Nov-22 06:08 40.704927 -74.149900 43 1993ft 167kts
14-Nov-22 06:09 40.742389 -74.097268 29 2944ft 203kts
14-Nov-22 06:10 40.782689 -74.138010 299 3006ft 216kts
14-Nov-22 06:11 40.811078 -74.208499 269 2976ft 221kts
14-Nov-22 06:12 40.761107 -74.253829 206 3000ft 233kts
14-Nov-22 06:13 40.700913 -74.286202 206 3007ft 234kts
14-Nov-22 06:14 40.641216 -74.317932 206 3012ft 228kts
14-Nov-22 06:15 40.582295 -74.348761 205 3021ft 227kts
14-Nov-22 06:16 40.523581 -74.379597 206 3023ft 228kts
14-Nov-22 06:17 40.475999 -74.354204 80 3023ft 237kts
14-Nov-22 06:18 40.515625 -74.291138 37 3045ft 224kts
14-Nov-22 06:19 40.566595 -74.244457 21 2442ft 219kts
14-Nov-22 06:20 40.617163 -74.212554 21 1378ft 158kts
14-Nov-22 06:21 40.652945 -74.189946 21 645ft 156kts
14-Nov-22 06:22 40.684816 -74.169621 20 10ft 57kts
14-Nov-22 06:23 40.690199 -74.168786 294 10ft 13kts
14-Nov-22 06:24 40.690968 -74.170892 295 10ft 0kts
14-Nov-22 06:25 40.691949 -74.172926 331 10ft 0kts

Navigation Log

Ident Type
Flight plan parsing failed, navigation log unavailable